Main page
METAR-TAF:

METAR-TAF

Airports :

Ohrid "St. Paul the Apostle" Airport

Ohrid, Macedonia

latitude: 41-07N, longitude: 020-48E, elevation: 760 m

Current weather observation

The report was made 13 hours and 10 minutes ago, at 14:00 UTC
Wind 4 kt from the South/Southwest
Temperature 20°C
Humidity 49%
Pressure 1020 hPa
Visibility 10 km or more
Few clouds at a height of 5000 ft

METAR: LWOH 151400Z 20004KT 9999 FEW050 20/09 Q1020

Time: 05:10 (03:10 UTC)

Forecast

The report was made 40 minutes ago, at 02:30 UTC
Forecast valid from 16 at 03 UTC to 17 at 03 UTC
Wind 6 kt from the North/Northwest
Visibility 10 km or more
Scattered clouds at a height of 4000 ft
Becoming
from 16 at 07 UTC to 16 at 09 UTC
Wind 8 kt from the South/Southeast
Few clouds at a height of 5000 ft

TAF: LWOH 160230Z 1603/1703 34006KT 9999 SCT040 BECMG 1607/1609 16008KT FEW050

Weather observations and forecasts of more than 4000 airports (METAR and TAF reports).

The available stations are represented by yellow and red dots on the map.

Hover mouse over dot to see the name of the station.

Then click to see weather observations and forecasts.

To change the map : click on the green buttons with a black cross to zoom in, on the green button with a dash to zoom out, or on the green arrows for adjacent maps.


METAR-TAF: